sensor_id;sensor_type;location;lat;lon;timestamp;temperature;humidity
73112;HTU21D;61301;51.956;5.876;2023-02-25T00:00:28;8.41;61.09
73112;HTU21D;61301;51.956;5.876;2023-02-25T00:02:56;8.36;61.29
73112;HTU21D;61301;51.956;5.876;2023-02-25T00:05:23;8.31;61.24
73112;HTU21D;61301;51.956;5.876;2023-02-25T00:07:49;8.36;61.34
73112;HTU21D;61301;51.956;5.876;2023-02-25T00:10:16;8.43;61.16
73112;HTU21D;61301;51.956;5.876;2023-02-25T00:12:42;8.50;61.34
73112;HTU21D;61301;51.956;5.876;2023-02-25T00:15:09;8.58;61.25
73112;HTU21D;61301;51.956;5.876;2023-02-25T00:17:35;8.61;60.96
73112;HTU21D;61301;51.956;5.876;2023-02-25T00:20:06;8.45;60.92
73112;HTU21D;61301;51.956;5.876;2023-02-25T00:22:34;8.51;61.11
73112;HTU21D;61301;51.956;5.876;2023-02-25T00:25:01;8.55;61.24
73112;HTU21D;61301;51.956;5.876;2023-02-25T00:27:27;8.56;61.26
73112;HTU21D;61301;51.956;5.876;2023-02-25T00:29:53;8.56;60.55
73112;HTU21D;61301;51.956;5.876;2023-02-25T00:32:21;8.37;60.77
73112;HTU21D;61301;51.956;5.876;2023-02-25T00:34:47;8.49;60.84
73112;HTU21D;61301;51.956;5.876;2023-02-25T00:37:14;8.47;60.70
73112;HTU21D;61301;51.956;5.876;2023-02-25T00:39:40;8.65;61.28
73112;HTU21D;61301;51.956;5.876;2023-02-25T00:42:14;8.71;60.40
73112;HTU21D;61301;51.956;5.876;2023-02-25T00:44:48;8.83;60.85
73112;HTU21D;61301;51.956;5.876;2023-02-25T00:47:16;9.00;60.60
73112;HTU21D;61301;51.956;5.876;2023-02-25T00:49:47;9.03;60.19
73112;HTU21D;61301;51.956;5.876;2023-02-25T00:52:14;9.08;60.34
73112;HTU21D;61301;51.956;5.876;2023-02-25T00:54:40;9.06;60.03
73112;HTU21D;61301;51.956;5.876;2023-02-25T00:57:07;8.90;59.70
73112;HTU21D;61301;51.956;5.876;2023-02-25T00:59:33;8.94;59.87
73112;HTU21D;61301;51.956;5.876;2023-02-25T01:01:59;8.79;59.47
73112;HTU21D;61301;51.956;5.876;2023-02-25T01:04:25;8.80;59.77
73112;HTU21D;61301;51.956;5.876;2023-02-25T01:06:52;8.91;60.01
73112;HTU21D;61301;51.956;5.876;2023-02-25T01:09:19;9.02;59.79
73112;HTU21D;61301;51.956;5.876;2023-02-25T01:11:48;8.90;59.40
73112;HTU21D;61301;51.956;5.876;2023-02-25T01:14:18;8.91;60.08
73112;HTU21D;61301;51.956;5.876;2023-02-25T01:16:46;9.06;60.05
73112;HTU21D;61301;51.956;5.876;2023-02-25T01:19:18;9.15;59.96
73112;HTU21D;61301;51.956;5.876;2023-02-25T01:21:48;9.31;59.73
73112;HTU21D;61301;51.956;5.876;2023-02-25T01:24:18;9.40;59.58
73112;HTU21D;61301;51.956;5.876;2023-02-25T01:26:48;9.36;59.26
73112;HTU21D;61301;51.956;5.876;2023-02-25T01:29:17;9.38;59.22
73112;HTU21D;61301;51.956;5.876;2023-02-25T01:31:44;9.52;59.38
73112;HTU21D;61301;51.956;5.876;2023-02-25T01:34:16;9.56;58.99
73112;HTU21D;61301;51.956;5.876;2023-02-25T01:36:42;9.48;58.32
73112;HTU21D;61301;51.956;5.876;2023-02-25T01:39:09;9.27;58.10
73112;HTU21D;61301;51.956;5.876;2023-02-25T01:41:36;9.16;58.64
73112;HTU21D;61301;51.956;5.876;2023-02-25T01:44:18;9.27;59.22
73112;HTU21D;61301;51.956;5.876;2023-02-25T01:46:48;9.22;59.22
73112;HTU21D;61301;51.956;5.876;2023-02-25T01:49:59;9.20;58.17
73112;HTU21D;61301;51.956;5.876;2023-02-25T01:54:37;9.23;58.75
73112;HTU21D;61301;51.956;5.876;2023-02-25T01:57:08;9.25;58.66
73112;HTU21D;61301;51.956;5.876;2023-02-25T01:59:37;9.22;58.86
73112;HTU21D;61301;51.956;5.876;2023-02-25T02:02:03;9.32;58.86
73112;HTU21D;61301;51.956;5.876;2023-02-25T02:04:30;9.40;58.92
73112;HTU21D;61301;51.956;5.876;2023-02-25T02:06:56;9.46;58.75
73112;HTU21D;61301;51.956;5.876;2023-02-25T02:09:26;9.55;58.75
73112;HTU21D;61301;51.956;5.876;2023-02-25T02:11:55;9.56;58.96
73112;HTU21D;61301;51.956;5.876;2023-02-25T02:14:26;9.66;58.69
73112;HTU21D;61301;51.956;5.876;2023-02-25T02:24:39;9.46;57.97
73112;HTU21D;61301;51.956;5.876;2023-02-25T02:27:28;9.40;57.71
73112;HTU21D;61301;51.956;5.876;2023-02-25T02:43:56;9.07;59.55
73112;HTU21D;61301;51.956;5.876;2023-02-25T02:46:33;9.07;59.38
73112;HTU21D;61301;51.956;5.876;2023-02-25T02:49:08;9.10;59.41
73112;HTU21D;61301;51.956;5.876;2023-02-25T02:51:45;9.11;59.52
73112;HTU21D;61301;51.956;5.876;2023-02-25T02:54:13;9.09;59.08
73112;HTU21D;61301;51.956;5.876;2023-02-25T02:56:43;9.10;59.52
73112;HTU21D;61301;51.956;5.876;2023-02-25T02:59:24;9.22;59.33
73112;HTU21D;61301;51.956;5.876;2023-02-25T03:01:59;9.33;59.61
73112;HTU21D;61301;51.956;5.876;2023-02-25T03:04:33;9.36;59.32
73112;HTU21D;61301;51.956;5.876;2023-02-25T03:07:03;9.27;59.13
73112;HTU21D;61301;51.956;5.876;2023-02-25T03:09:39;9.25;59.39
73112;HTU21D;61301;51.956;5.876;2023-02-25T03:12:06;9.23;59.41
73112;HTU21D;61301;51.956;5.876;2023-02-25T03:14:36;9.29;59.41
73112;HTU21D;61301;51.956;5.876;2023-02-25T03:17:09;9.16;59.30
73112;HTU21D;61301;51.956;5.876;2023-02-25T03:19:37;9.21;58.98
73112;HTU21D;61301;51.956;5.876;2023-02-25T03:22:12;9.08;58.97
73112;HTU21D;61301;51.956;5.876;2023-02-25T03:24:45;9.01;59.06
73112;HTU21D;61301;51.956;5.876;2023-02-25T03:27:26;8.98;59.52
73112;HTU21D;61301;51.956;5.876;2023-02-25T03:32:31;9.25;59.68
73112;HTU21D;61301;51.956;5.876;2023-02-25T03:35:00;9.36;59.41
73112;HTU21D;61301;51.956;5.876;2023-02-25T03:37:31;9.44;59.38
73112;HTU21D;61301;51.956;5.876;2023-02-25T03:40:00;9.40;58.05
73112;HTU21D;61301;51.956;5.876;2023-02-25T03:42:33;9.44;58.77
73112;HTU21D;61301;51.956;5.876;2023-02-25T03:45:02;9.51;59.05
73112;HTU21D;61301;51.956;5.876;2023-02-25T03:47:32;9.54;58.09
73112;HTU21D;61301;51.956;5.876;2023-02-25T03:52:34;9.42;58.52
73112;HTU21D;61301;51.956;5.876;2023-02-25T03:55:04;9.35;58.49
73112;HTU21D;61301;51.956;5.876;2023-02-25T03:57:37;9.21;59.07
73112;HTU21D;61301;51.956;5.876;2023-02-25T04:00:30;9.23;59.25
73112;HTU21D;61301;51.956;5.876;2023-02-25T04:02:54;9.16;59.91
73112;HTU21D;61301;51.956;5.876;2023-02-25T04:05:22;9.09;59.87
73112;HTU21D;61301;51.956;5.876;2023-02-25T04:07:57;8.98;60.08
73112;HTU21D;61301;51.956;5.876;2023-02-25T04:10:24;9.06;60.39
73112;HTU21D;61301;51.956;5.876;2023-02-25T04:12:51;9.03;60.38
73112;HTU21D;61301;51.956;5.876;2023-02-25T04:15:18;9.12;60.67
73112;HTU21D;61301;51.956;5.876;2023-02-25T04:17:47;9.31;60.34
73112;HTU21D;61301;51.956;5.876;2023-02-25T04:20:14;9.41;60.50
73112;HTU21D;61301;51.956;5.876;2023-02-25T04:22:41;9.47;59.41
73112;HTU21D;61301;51.956;5.876;2023-02-25T04:25:08;9.51;59.41
73112;HTU21D;61301;51.956;5.876;2023-02-25T04:27:34;9.63;59.20
73112;HTU21D;61301;51.956;5.876;2023-02-25T04:30:00;9.69;58.86
73112;HTU21D;61301;51.956;5.876;2023-02-25T04:32:26;9.66;58.32
73112;HTU21D;61301;51.956;5.876;2023-02-25T04:34:52;9.66;57.61
73112;HTU21D;61301;51.956;5.876;2023-02-25T04:37:18;9.59;58.06
73112;HTU21D;61301;51.956;5.876;2023-02-25T04:39:44;9.44;58.06
73112;HTU21D;61301;51.956;5.876;2023-02-25T04:42:11;9.34;58.19
73112;HTU21D;61301;51.956;5.876;2023-02-25T04:44:37;9.14;58.26
73112;HTU21D;61301;51.956;5.876;2023-02-25T04:47:03;9.10;58.64
73112;HTU21D;61301;51.956;5.876;2023-02-25T04:49:29;9.15;58.28
73112;HTU21D;61301;51.956;5.876;2023-02-25T04:51:55;9.23;58.45
73112;HTU21D;61301;51.956;5.876;2023-02-25T04:54:21;9.05;58.33
73112;HTU21D;61301;51.956;5.876;2023-02-25T04:56:47;9.01;58.52
73112;HTU21D;61301;51.956;5.876;2023-02-25T04:59:14;9.09;58.58
73112;HTU21D;61301;51.956;5.876;2023-02-25T05:01:40;8.92;58.36
73112;HTU21D;61301;51.956;5.876;2023-02-25T05:04:06;8.75;58.90
73112;HTU21D;61301;51.956;5.876;2023-02-25T05:06:32;8.66;59.38
73112;HTU21D;61301;51.956;5.876;2023-02-25T05:08:58;8.77;59.55
73112;HTU21D;61301;51.956;5.876;2023-02-25T05:11:25;8.80;59.12
73112;HTU21D;61301;51.956;5.876;2023-02-25T05:13:53;8.70;59.57
73112;HTU21D;61301;51.956;5.876;2023-02-25T05:16:22;8.62;59.77
73112;HTU21D;61301;51.956;5.876;2023-02-25T05:18:48;8.56;60.31
73112;HTU21D;61301;51.956;5.876;2023-02-25T05:21:16;8.57;60.21
73112;HTU21D;61301;51.956;5.876;2023-02-25T05:23:44;8.78;59.76
73112;HTU21D;61301;51.956;5.876;2023-02-25T05:26:11;8.59;60.03
73112;HTU21D;61301;51.956;5.876;2023-02-25T05:28:37;8.63;60.17
73112;HTU21D;61301;51.956;5.876;2023-02-25T05:31:08;8.77;60.06
73112;HTU21D;61301;51.956;5.876;2023-02-25T05:33:35;8.78;58.98
73112;HTU21D;61301;51.956;5.876;2023-02-25T05:36:06;8.71;58.69
73112;HTU21D;61301;51.956;5.876;2023-02-25T05:38:33;8.83;59.01
73112;HTU21D;61301;51.956;5.876;2023-02-25T05:41:00;8.91;59.25
73112;HTU21D;61301;51.956;5.876;2023-02-25T05:43:26;9.04;59.48
73112;HTU21D;61301;51.956;5.876;2023-02-25T05:45:57;9.20;59.23
73112;HTU21D;61301;51.956;5.876;2023-02-25T05:48:23;9.30;58.74
73112;HTU21D;61301;51.956;5.876;2023-02-25T05:50:50;9.29;58.89
73112;HTU21D;61301;51.956;5.876;2023-02-25T05:53:17;9.33;58.96
73112;HTU21D;61301;51.956;5.876;2023-02-25T05:55:43;9.25;58.03
73112;HTU21D;61301;51.956;5.876;2023-02-25T05:58:10;9.34;58.32
73112;HTU21D;61301;51.956;5.876;2023-02-25T06:00:36;9.29;58.04
73112;HTU21D;61301;51.956;5.876;2023-02-25T06:03:03;9.26;58.77
73112;HTU21D;61301;51.956;5.876;2023-02-25T06:05:29;9.31;58.06
73112;HTU21D;61301;51.956;5.876;2023-02-25T06:07:58;9.39;58.15
73112;HTU21D;61301;51.956;5.876;2023-02-25T06:10:25;9.48;58.51
73112;HTU21D;61301;51.956;5.876;2023-02-25T06:12:51;9.62;58.45
73112;HTU21D;61301;51.956;5.876;2023-02-25T06:15:18;9.63;57.90
73112;HTU21D;61301;51.956;5.876;2023-02-25T06:17:44;9.81;57.50
73112;HTU21D;61301;51.956;5.876;2023-02-25T06:20:10;9.67;56.97
73112;HTU21D;61301;51.956;5.876;2023-02-25T06:22:36;9.66;57.05
73112;HTU21D;61301;51.956;5.876;2023-02-25T06:25:02;9.57;56.71
73112;HTU21D;61301;51.956;5.876;2023-02-25T06:27:28;9.65;56.26
73112;HTU21D;61301;51.956;5.876;2023-02-25T06:29:55;9.48;56.32
73112;HTU21D;61301;51.956;5.876;2023-02-25T06:32:21;9.33;56.43
73112;HTU21D;61301;51.956;5.876;2023-02-25T06:34:47;9.40;57.37
73112;HTU21D;61301;51.956;5.876;2023-02-25T06:37:13;9.33;57.18
73112;HTU21D;61301;51.956;5.876;2023-02-25T06:39:39;9.10;57.51
73112;HTU21D;61301;51.956;5.876;2023-02-25T06:42:08;8.87;58.21
73112;HTU21D;61301;51.956;5.876;2023-02-25T06:44:35;8.81;58.34
73112;HTU21D;61301;51.956;5.876;2023-02-25T06:47:01;8.90;58.45
73112;HTU21D;61301;51.956;5.876;2023-02-25T06:49:28;8.78;58.91
73112;HTU21D;61301;51.956;5.876;2023-02-25T06:51:54;8.83;59.51
73112;HTU21D;61301;51.956;5.876;2023-02-25T06:54:20;8.79;59.26
73112;HTU21D;61301;51.956;5.876;2023-02-25T06:56:46;9.02;59.62
73112;HTU21D;61301;51.956;5.876;2023-02-25T06:59:12;9.04;59.57
73112;HTU21D;61301;51.956;5.876;2023-02-25T07:01:38;9.17;59.47
73112;HTU21D;61301;51.956;5.876;2023-02-25T07:04:05;9.14;58.84
73112;HTU21D;61301;51.956;5.876;2023-02-25T07:06:31;9.30;58.95
73112;HTU21D;61301;51.956;5.876;2023-02-25T07:08:57;9.39;59.29
73112;HTU21D;61301;51.956;5.876;2023-02-25T07:13:49;9.50;58.18
73112;HTU21D;61301;51.956;5.876;2023-02-25T07:16:16;9.39;58.65
73112;HTU21D;61301;51.956;5.876;2023-02-25T07:18:42;9.40;59.11
73112;HTU21D;61301;51.956;5.876;2023-02-25T07:21:09;9.44;59.36
73112;HTU21D;61301;51.956;5.876;2023-02-25T07:23:39;9.44;59.56
73112;HTU21D;61301;51.956;5.876;2023-02-25T07:26:09;9.52;59.55
73112;HTU21D;61301;51.956;5.876;2023-02-25T07:28:35;9.60;58.72
73112;HTU21D;61301;51.956;5.876;2023-02-25T07:31:03;9.63;58.30
73112;HTU21D;61301;51.956;5.876;2023-02-25T07:33:30;9.68;58.80
73112;HTU21D;61301;51.956;5.876;2023-02-25T07:35:56;9.76;58.67
73112;HTU21D;61301;51.956;5.876;2023-02-25T07:38:23;9.81;58.65
73112;HTU21D;61301;51.956;5.876;2023-02-25T07:40:49;9.85;58.90
73112;HTU21D;61301;51.956;5.876;2023-02-25T07:43:15;9.92;58.46
73112;HTU21D;61301;51.956;5.876;2023-02-25T07:45:41;10.04;58.67
73112;HTU21D;61301;51.956;5.876;2023-02-25T07:48:07;10.34;58.20
73112;HTU21D;61301;51.956;5.876;2023-02-25T07:50:33;10.35;58.42
73112;HTU21D;61301;51.956;5.876;2023-02-25T07:53:01;10.36;58.01
73112;HTU21D;61301;51.956;5.876;2023-02-25T07:55:27;10.34;58.16
73112;HTU21D;61301;51.956;5.876;2023-02-25T07:57:53;10.31;57.96
73112;HTU21D;61301;51.956;5.876;2023-02-25T08:00:19;10.31;58.04
73112;HTU21D;61301;51.956;5.876;2023-02-25T08:02:45;10.40;58.22
73112;HTU21D;61301;51.956;5.876;2023-02-25T08:05:11;10.45;58.10
73112;HTU21D;61301;51.956;5.876;2023-02-25T08:07:37;10.58;58.00
73112;HTU21D;61301;51.956;5.876;2023-02-25T08:10:04;10.67;58.14
73112;HTU21D;61301;51.956;5.876;2023-02-25T08:12:30;10.72;57.64
73112;HTU21D;61301;51.956;5.876;2023-02-25T08:14:56;10.75;57.78
73112;HTU21D;61301;51.956;5.876;2023-02-25T08:17:27;10.86;57.77
73112;HTU21D;61301;51.956;5.876;2023-02-25T08:19:57;10.99;57.64
73112;HTU21D;61301;51.956;5.876;2023-02-25T08:22:23;11.14;57.56
73112;HTU21D;61301;51.956;5.876;2023-02-25T08:24:49;11.09;56.59
73112;HTU21D;61301;51.956;5.876;2023-02-25T08:27:15;11.04;56.79
73112;HTU21D;61301;51.956;5.876;2023-02-25T08:29:41;10.98;57.00
73112;HTU21D;61301;51.956;5.876;2023-02-25T08:32:07;11.00;56.95
73112;HTU21D;61301;51.956;5.876;2023-02-25T08:34:34;10.93;57.19
73112;HTU21D;61301;51.956;5.876;2023-02-25T08:37:00;10.95;57.26
73112;HTU21D;61301;51.956;5.876;2023-02-25T08:39:26;10.99;56.98
73112;HTU21D;61301;51.956;5.876;2023-02-25T08:41:53;11.01;57.08
73112;HTU21D;61301;51.956;5.876;2023-02-25T08:44:19;11.01;56.17
73112;HTU21D;61301;51.956;5.876;2023-02-25T08:46:46;10.97;56.35
73112;HTU21D;61301;51.956;5.876;2023-02-25T08:49:12;11.10;56.65
73112;HTU21D;61301;51.956;5.876;2023-02-25T08:51:38;11.11;56.23
73112;HTU21D;61301;51.956;5.876;2023-02-25T08:54:11;11.28;56.11
73112;HTU21D;61301;51.956;5.876;2023-02-25T08:56:37;11.39;55.74
73112;HTU21D;61301;51.956;5.876;2023-02-25T08:59:13;11.44;55.59
73112;HTU21D;61301;51.956;5.876;2023-02-25T09:01:39;11.23;55.57
73112;HTU21D;61301;51.956;5.876;2023-02-25T09:04:20;11.20;55.84
73112;HTU21D;61301;51.956;5.876;2023-02-25T09:06:48;11.17;55.00
73112;HTU21D;61301;51.956;5.876;2023-02-25T09:09:15;11.04;55.35
73112;HTU21D;61301;51.956;5.876;2023-02-25T09:11:42;10.99;54.91
73112;HTU21D;61301;51.956;5.876;2023-02-25T09:14:09;10.82;55.14
73112;HTU21D;61301;51.956;5.876;2023-02-25T09:16:35;10.79;55.65
73112;HTU21D;61301;51.956;5.876;2023-02-25T09:19:02;10.85;55.72
73112;HTU21D;61301;51.956;5.876;2023-02-25T09:21:29;10.87;55.68
73112;HTU21D;61301;51.956;5.876;2023-02-25T09:23:55;10.90;55.93
73112;HTU21D;61301;51.956;5.876;2023-02-25T09:26:21;10.88;55.51
73112;HTU21D;61301;51.956;5.876;2023-02-25T09:28:47;10.86;55.51
73112;HTU21D;61301;51.956;5.876;2023-02-25T09:31:15;10.89;55.69
73112;HTU21D;61301;51.956;5.876;2023-02-25T09:33:41;11.00;55.96
73112;HTU21D;61301;51.956;5.876;2023-02-25T09:36:10;11.03;55.81
73112;HTU21D;61301;51.956;5.876;2023-02-25T09:38:41;11.09;55.81
73112;HTU21D;61301;51.956;5.876;2023-02-25T09:41:32;11.23;55.76
73112;HTU21D;61301;51.956;5.876;2023-02-25T09:44:17;11.23;55.66
73112;HTU21D;61301;51.956;5.876;2023-02-25T09:46:55;11.30;55.69
73112;HTU21D;61301;51.956;5.876;2023-02-25T09:49:35;11.23;54.65
73112;HTU21D;61301;51.956;5.876;2023-02-25T09:52:12;11.17;54.46
73112;HTU21D;61301;51.956;5.876;2023-02-25T09:54:45;11.28;54.68
73112;HTU21D;61301;51.956;5.876;2023-02-25T09:57:16;11.41;54.90
73112;HTU21D;61301;51.956;5.876;2023-02-25T09:59:45;11.68;54.80
73112;HTU21D;61301;51.956;5.876;2023-02-25T10:02:37;11.84;53.60
73112;HTU21D;61301;51.956;5.876;2023-02-25T10:05:41;11.86;53.85
73112;HTU21D;61301;51.956;5.876;2023-02-25T10:26:49;12.62;49.53
73112;HTU21D;61301;51.956;5.876;2023-02-25T10:29:24;12.66;48.89
73112;HTU21D;61301;51.956;5.876;2023-02-25T10:31:58;12.72;48.89
73112;HTU21D;61301;51.956;5.876;2023-02-25T10:34:27;12.85;50.08
73112;HTU21D;61301;51.956;5.876;2023-02-25T10:36:56;12.88;48.35
73112;HTU21D;61301;51.956;5.876;2023-02-25T10:39:24;12.63;47.41
73112;HTU21D;61301;51.956;5.876;2023-02-25T10:41:51;12.44;48.70
73112;HTU21D;61301;51.956;5.876;2023-02-25T10:44:17;12.37;50.07
73112;HTU21D;61301;51.956;5.876;2023-02-25T10:46:56;12.35;50.00
73112;HTU21D;61301;51.956;5.876;2023-02-25T10:49:25;12.29;48.71
73112;HTU21D;61301;51.956;5.876;2023-02-25T10:52:03;12.27;47.11
73112;HTU21D;61301;51.956;5.876;2023-02-25T10:54:47;11.61;45.23
73112;HTU21D;61301;51.956;5.876;2023-02-25T10:57:40;11.18;47.56
73112;HTU21D;61301;51.956;5.876;2023-02-25T11:00:28;10.90;47.31
73112;HTU21D;61301;51.956;5.876;2023-02-25T11:02:56;10.74;47.44
73112;HTU21D;61301;51.956;5.876;2023-02-25T11:05:39;10.49;47.57
73112;HTU21D;61301;51.956;5.876;2023-02-25T11:08:28;10.27;48.05
73112;HTU21D;61301;51.956;5.876;2023-02-25T11:11:02;10.22;46.96
73112;HTU21D;61301;51.956;5.876;2023-02-25T11:13:30;10.31;47.90
73112;HTU21D;61301;51.956;5.876;2023-02-25T11:15:59;10.34;47.92
73112;HTU21D;61301;51.956;5.876;2023-02-25T11:18:29;10.49;49.03
73112;HTU21D;61301;51.956;5.876;2023-02-25T11:20:58;10.68;47.70
73112;HTU21D;61301;51.956;5.876;2023-02-25T11:23:38;10.82;47.97
73112;HTU21D;61301;51.956;5.876;2023-02-25T11:26:15;10.96;47.21
73112;HTU21D;61301;51.956;5.876;2023-02-25T11:28:48;11.23;47.57
73112;HTU21D;61301;51.956;5.876;2023-02-25T11:31:17;11.45;48.34
73112;HTU21D;61301;51.956;5.876;2023-02-25T11:33:52;11.73;47.11
73112;HTU21D;61301;51.956;5.876;2023-02-25T11:36:23;11.87;46.14
73112;HTU21D;61301;51.956;5.876;2023-02-25T11:39:17;12.15;45.82
73112;HTU21D;61301;51.956;5.876;2023-02-25T11:41:46;12.36;45.16
73112;HTU21D;61301;51.956;5.876;2023-02-25T11:44:19;12.47;43.67
73112;HTU21D;61301;51.956;5.876;2023-02-25T11:57:38;12.77;41.21
73112;HTU21D;61301;51.956;5.876;2023-02-25T12:03:36;12.89;41.87
73112;HTU21D;61301;51.956;5.876;2023-02-25T12:06:25;12.88;42.40
73112;HTU21D;61301;51.956;5.876;2023-02-25T12:12:36;12.91;37.05
73112;HTU21D;61301;51.956;5.876;2023-02-25T12:30:46;13.06;39.92
73112;HTU21D;61301;51.956;5.876;2023-02-25T12:45:16;12.70;38.71
73112;HTU21D;61301;51.956;5.876;2023-02-25T12:54:07;12.61;37.50
73112;HTU21D;61301;51.956;5.876;2023-02-25T12:56:39;12.69;36.26
73112;HTU21D;61301;51.956;5.876;2023-02-25T13:16:06;12.72;37.20
73112;HTU21D;61301;51.956;5.876;2023-02-25T13:21:51;13.40;38.65
73112;HTU21D;61301;51.956;5.876;2023-02-25T13:30:04;13.86;35.47
73112;HTU21D;61301;51.956;5.876;2023-02-25T13:32:45;13.43;34.40
73112;HTU21D;61301;51.956;5.876;2023-02-25T13:46:40;13.82;34.68
73112;HTU21D;61301;51.956;5.876;2023-02-25T13:52:23;13.98;31.89
73112;HTU21D;61301;51.956;5.876;2023-02-25T14:09:36;14.23;31.29
73112;HTU21D;61301;51.956;5.876;2023-02-25T14:17:44;14.30;29.79
73112;HTU21D;61301;51.956;5.876;2023-02-25T14:28:25;14.55;29.80
73112;HTU21D;61301;51.956;5.876;2023-02-25T14:31:00;14.63;31.43
73112;HTU21D;61301;51.956;5.876;2023-02-25T14:47:38;15.33;31.51
73112;HTU21D;61301;51.956;5.876;2023-02-25T15:04:17;16.08;26.11
73112;HTU21D;61301;51.956;5.876;2023-02-25T15:21:34;15.77;27.46
73112;HTU21D;61301;51.956;5.876;2023-02-25T15:24:03;15.91;29.38
73112;HTU21D;61301;51.956;5.876;2023-02-25T15:26:44;16.18;30.57
73112;HTU21D;61301;51.956;5.876;2023-02-25T15:32:25;16.03;29.93
73112;HTU21D;61301;51.956;5.876;2023-02-25T15:34:59;15.89;31.39
73112;HTU21D;61301;51.956;5.876;2023-02-25T15:37:35;15.84;28.48
73112;HTU21D;61301;51.956;5.876;2023-02-25T15:55:50;15.38;29.62
73112;HTU21D;61301;51.956;5.876;2023-02-25T16:00:55;15.37;27.40
73112;HTU21D;61301;51.956;5.876;2023-02-25T16:06:14;15.11;26.26
73112;HTU21D;61301;51.956;5.876;2023-02-25T16:08:55;14.97;27.21
73112;HTU21D;61301;51.956;5.876;2023-02-25T16:12:01;14.91;28.10
73112;HTU21D;61301;51.956;5.876;2023-02-25T16:14:34;14.95;31.49
73112;HTU21D;61301;51.956;5.876;2023-02-25T16:17:26;14.55;28.93
73112;HTU21D;61301;51.956;5.876;2023-02-25T16:20:06;14.01;30.50
73112;HTU21D;61301;51.956;5.876;2023-02-25T16:22:35;13.89;32.07
73112;HTU21D;61301;51.956;5.876;2023-02-25T16:25:02;13.77;31.88
73112;HTU21D;61301;51.956;5.876;2023-02-25T16:27:45;13.48;31.94
73112;HTU21D;61301;51.956;5.876;2023-02-25T16:40:38;12.43;32.83
73112;HTU21D;61301;51.956;5.876;2023-02-25T16:43:05;12.16;33.73
73112;HTU21D;61301;51.956;5.876;2023-02-25T16:45:41;12.03;33.76
73112;HTU21D;61301;51.956;5.876;2023-02-25T16:48:24;11.84;33.68
73112;HTU21D;61301;51.956;5.876;2023-02-25T16:50:52;11.68;34.68
73112;HTU21D;61301;51.956;5.876;2023-02-25T16:53:22;11.60;36.87
73112;HTU21D;61301;51.956;5.876;2023-02-25T16:55:56;11.73;37.62
73112;HTU21D;61301;51.956;5.876;2023-02-25T16:58:25;11.73;37.43
73112;HTU21D;61301;51.956;5.876;2023-02-25T17:00:54;11.77;38.12
73112;HTU21D;61301;51.956;5.876;2023-02-25T17:03:23;11.74;37.95
73112;HTU21D;61301;51.956;5.876;2023-02-25T17:06:16;11.69;38.56
73112;HTU21D;61301;51.956;5.876;2023-02-25T17:08:44;11.59;37.19
73112;HTU21D;61301;51.956;5.876;2023-02-25T17:11:21;11.66;39.36
73112;HTU21D;61301;51.956;5.876;2023-02-25T17:13:51;11.64;37.60
73112;HTU21D;61301;51.956;5.876;2023-02-25T17:16:27;11.49;35.81
73112;HTU21D;61301;51.956;5.876;2023-02-25T17:18:57;11.33;37.21
73112;HTU21D;61301;51.956;5.876;2023-02-25T17:21:28;11.33;37.31
73112;HTU21D;61301;51.956;5.876;2023-02-25T17:23:56;11.27;37.66
73112;HTU21D;61301;51.956;5.876;2023-02-25T17:26:23;11.30;37.38
73112;HTU21D;61301;51.956;5.876;2023-02-25T17:28:52;11.31;39.36
73112;HTU21D;61301;51.956;5.876;2023-02-25T17:31:22;11.40;40.27
73112;HTU21D;61301;51.956;5.876;2023-02-25T17:33:57;11.53;39.43
73112;HTU21D;61301;51.956;5.876;2023-02-25T17:36:36;11.54;39.62
73112;HTU21D;61301;51.956;5.876;2023-02-25T17:39:17;11.51;39.77
73112;HTU21D;61301;51.956;5.876;2023-02-25T17:41:45;11.46;40.54
73112;HTU21D;61301;51.956;5.876;2023-02-25T17:47:20;11.44;40.55
73112;HTU21D;61301;51.956;5.876;2023-02-25T17:49:46;11.39;39.71
73112;HTU21D;61301;51.956;5.876;2023-02-25T17:52:25;11.34;39.94
73112;HTU21D;61301;51.956;5.876;2023-02-25T17:55:18;11.42;41.13
73112;HTU21D;61301;51.956;5.876;2023-02-25T17:57:45;11.45;41.57
73112;HTU21D;61301;51.956;5.876;2023-02-25T18:00:21;11.48;42.46
73112;HTU21D;61301;51.956;5.876;2023-02-25T18:03:10;11.53;41.83
73112;HTU21D;61301;51.956;5.876;2023-02-25T18:05:58;11.49;40.55
73112;HTU21D;61301;51.956;5.876;2023-02-25T18:08:28;11.44;39.98
73112;HTU21D;61301;51.956;5.876;2023-02-25T18:11:02;11.34;41.07
73112;HTU21D;61301;51.956;5.876;2023-02-25T18:13:36;11.28;41.22
73112;HTU21D;61301;51.956;5.876;2023-02-25T18:18:50;11.40;41.75
73112;HTU21D;61301;51.956;5.876;2023-02-25T18:21:16;11.29;41.45
73112;HTU21D;61301;51.956;5.876;2023-02-25T18:23:42;11.27;41.65
73112;HTU21D;61301;51.956;5.876;2023-02-25T18:28:37;11.39;43.80
73112;HTU21D;61301;51.956;5.876;2023-02-25T18:31:06;11.44;44.19
73112;HTU21D;61301;51.956;5.876;2023-02-25T18:33:33;11.55;46.13
73112;HTU21D;61301;51.956;5.876;2023-02-25T18:35:59;11.70;46.35
73112;HTU21D;61301;51.956;5.876;2023-02-25T18:38:28;11.77;46.44
73112;HTU21D;61301;51.956;5.876;2023-02-25T18:40:55;11.81;46.83
73112;HTU21D;61301;51.956;5.876;2023-02-25T18:43:24;11.89;47.40
73112;HTU21D;61301;51.956;5.876;2023-02-25T18:45:53;12.00;47.12
73112;HTU21D;61301;51.956;5.876;2023-02-25T18:48:19;12.05;47.34
73112;HTU21D;61301;51.956;5.876;2023-02-25T18:50:45;12.14;47.76
73112;HTU21D;61301;51.956;5.876;2023-02-25T18:53:20;12.22;47.68
73112;HTU21D;61301;51.956;5.876;2023-02-25T18:55:49;12.25;47.48
73112;HTU21D;61301;51.956;5.876;2023-02-25T18:58:16;12.26;48.08
73112;HTU21D;61301;51.956;5.876;2023-02-25T19:00:45;12.18;47.70
73112;HTU21D;61301;51.956;5.876;2023-02-25T19:03:20;12.17;48.21
73112;HTU21D;61301;51.956;5.876;2023-02-25T19:05:46;12.26;48.64
73112;HTU21D;61301;51.956;5.876;2023-02-25T19:08:14;12.30;48.47
73112;HTU21D;61301;51.956;5.876;2023-02-25T19:10:42;12.23;48.29
73112;HTU21D;61301;51.956;5.876;2023-02-25T19:13:21;12.23;49.24
73112;HTU21D;61301;51.956;5.876;2023-02-25T19:15:48;12.19;48.03
73112;HTU21D;61301;51.956;5.876;2023-02-25T19:18:14;12.14;48.44
73112;HTU21D;61301;51.956;5.876;2023-02-25T19:20:42;12.14;48.05
73112;HTU21D;61301;51.956;5.876;2023-02-25T19:23:13;12.11;48.15
73112;HTU21D;61301;51.956;5.876;2023-02-25T19:25:41;12.05;48.10
73112;HTU21D;61301;51.956;5.876;2023-02-25T19:28:07;12.00;47.98
73112;HTU21D;61301;51.956;5.876;2023-02-25T19:30:38;11.94;48.41
73112;HTU21D;61301;51.956;5.876;2023-02-25T19:33:05;11.96;48.27
73112;HTU21D;61301;51.956;5.876;2023-02-25T19:35:34;11.92;48.15
73112;HTU21D;61301;51.956;5.876;2023-02-25T19:38:02;11.94;48.19
73112;HTU21D;61301;51.956;5.876;2023-02-25T19:40:28;11.93;48.05
73112;HTU21D;61301;51.956;5.876;2023-02-25T19:42:54;11.90;48.14
73112;HTU21D;61301;51.956;5.876;2023-02-25T19:45:23;11.88;48.08
73112;HTU21D;61301;51.956;5.876;2023-02-25T19:47:49;11.85;48.06
73112;HTU21D;61301;51.956;5.876;2023-02-25T19:50:17;11.79;47.56
73112;HTU21D;61301;51.956;5.876;2023-02-25T19:52:44;11.74;48.07
73112;HTU21D;61301;51.956;5.876;2023-02-25T19:55:11;11.62;47.83
73112;HTU21D;61301;51.956;5.876;2023-02-25T19:57:38;11.59;48.53